sensor_id;sensor_type;location;lat;lon;timestamp;temperature;humidity
53844;DHT22;39744;53.314;5.710;2022-12-31T00:01:23;10.40;99.90
53844;DHT22;39744;53.314;5.710;2022-12-31T00:03:49;10.40;99.90
53844;DHT22;39744;53.314;5.710;2022-12-31T00:06:35;9.60;99.90
53844;DHT22;39744;53.314;5.710;2022-12-31T00:09:03;10.20;99.90
53844;DHT22;39744;53.314;5.710;2022-12-31T00:11:29;10.10;99.90
53844;DHT22;39744;53.314;5.710;2022-12-31T00:13:55;10.10;99.90
53844;DHT22;39744;53.314;5.710;2022-12-31T00:16:30;10.10;99.90
53844;DHT22;39744;53.314;5.710;2022-12-31T00:18:58;10.00;99.90
53844;DHT22;39744;53.314;5.710;2022-12-31T00:21:25;10.00;99.90
53844;DHT22;39744;53.314;5.710;2022-12-31T00:23:50;9.90;99.90
53844;DHT22;39744;53.314;5.710;2022-12-31T00:26:18;9.90;99.90
53844;DHT22;39744;53.314;5.710;2022-12-31T00:28:46;9.90;99.90
53844;DHT22;39744;53.314;5.710;2022-12-31T00:31:17;9.90;99.90
53844;DHT22;39744;53.314;5.710;2022-12-31T00:33:44;9.90;99.90
53844;DHT22;39744;53.314;5.710;2022-12-31T00:36:12;9.80;99.90
53844;DHT22;39744;53.314;5.710;2022-12-31T00:38:40;9.90;99.90
53844;DHT22;39744;53.314;5.710;2022-12-31T00:41:06;9.90;99.90
53844;DHT22;39744;53.314;5.710;2022-12-31T00:43:33;9.90;99.90
53844;DHT22;39744;53.314;5.710;2022-12-31T00:45:59;9.90;99.90
53844;DHT22;39744;53.314;5.710;2022-12-31T00:48:25;9.80;99.90
53844;DHT22;39744;53.314;5.710;2022-12-31T00:50:51;9.80;99.90
53844;DHT22;39744;53.314;5.710;2022-12-31T00:53:17;9.80;99.90
53844;DHT22;39744;53.314;5.710;2022-12-31T00:55:43;9.70;99.90
53844;DHT22;39744;53.314;5.710;2022-12-31T00:58:08;9.70;99.90
53844;DHT22;39744;53.314;5.710;2022-12-31T01:00:35;9.80;99.90
53844;DHT22;39744;53.314;5.710;2022-12-31T01:03:01;9.80;99.90
53844;DHT22;39744;53.314;5.710;2022-12-31T01:05:29;9.80;99.90
53844;DHT22;39744;53.314;5.710;2022-12-31T01:07:54;9.80;99.90
53844;DHT22;39744;53.314;5.710;2022-12-31T01:10:20;9.90;99.90
53844;DHT22;39744;53.314;5.710;2022-12-31T01:13:06;9.90;99.90
53844;DHT22;39744;53.314;5.710;2022-12-31T01:15:33;10.00;99.90
53844;DHT22;39744;53.314;5.710;2022-12-31T01:18:05;10.00;99.90
53844;DHT22;39744;53.314;5.710;2022-12-31T01:20:36;10.00;99.90
53844;DHT22;39744;53.314;5.710;2022-12-31T01:23:02;10.00;99.90
53844;DHT22;39744;53.314;5.710;2022-12-31T01:25:28;10.00;99.90
53844;DHT22;39744;53.314;5.710;2022-12-31T01:27:54;10.00;99.90
53844;DHT22;39744;53.314;5.710;2022-12-31T01:30:19;10.00;99.90
53844;DHT22;39744;53.314;5.710;2022-12-31T01:32:49;10.00;99.90
53844;DHT22;39744;53.314;5.710;2022-12-31T01:35:24;10.00;99.90
53844;DHT22;39744;53.314;5.710;2022-12-31T01:37:59;10.00;99.90
53844;DHT22;39744;53.314;5.710;2022-12-31T01:40:25;10.00;99.90
53844;DHT22;39744;53.314;5.710;2022-12-31T01:42:57;10.00;99.90
53844;DHT22;39744;53.314;5.710;2022-12-31T01:45:27;9.90;99.90
53844;DHT22;39744;53.314;5.710;2022-12-31T01:47:55;9.80;99.90
53844;DHT22;39744;53.314;5.710;2022-12-31T01:50:29;10.00;99.90
53844;DHT22;39744;53.314;5.710;2022-12-31T01:52:59;10.00;99.90
53844;DHT22;39744;53.314;5.710;2022-12-31T01:55:33;10.00;99.90
53844;DHT22;39744;53.314;5.710;2022-12-31T01:58:09;10.00;99.90
53844;DHT22;39744;53.314;5.710;2022-12-31T02:00:36;10.00;99.90
53844;DHT22;39744;53.314;5.710;2022-12-31T02:03:03;10.00;99.90
53844;DHT22;39744;53.314;5.710;2022-12-31T02:05:48;10.10;99.90
53844;DHT22;39744;53.314;5.710;2022-12-31T02:08:16;10.10;99.90
53844;DHT22;39744;53.314;5.710;2022-12-31T02:10:42;10.10;99.90
53844;DHT22;39744;53.314;5.710;2022-12-31T02:13:08;10.10;99.90
53844;DHT22;39744;53.314;5.710;2022-12-31T02:15:38;10.00;99.90
53844;DHT22;39744;53.314;5.710;2022-12-31T02:24:40;10.00;99.90
53844;DHT22;39744;53.314;5.710;2022-12-31T02:30:12;10.00;99.90
53844;DHT22;39744;53.314;5.710;2022-12-31T02:35:57;10.10;99.90
53844;DHT22;39744;53.314;5.710;2022-12-31T02:38:30;10.00;99.90
53844;DHT22;39744;53.314;5.710;2022-12-31T02:41:04;10.00;99.90
53844;DHT22;39744;53.314;5.710;2022-12-31T02:43:29;10.00;99.90
53844;DHT22;39744;53.314;5.710;2022-12-31T02:46:07;9.90;99.90
53844;DHT22;39744;53.314;5.710;2022-12-31T02:48:48;10.00;99.90
53844;DHT22;39744;53.314;5.710;2022-12-31T02:51:41;10.00;99.90
53844;DHT22;39744;53.314;5.710;2022-12-31T02:59:41;9.90;99.90
53844;DHT22;39744;53.314;5.710;2022-12-31T03:02:31;10.00;99.90
53844;DHT22;39744;53.314;5.710;2022-12-31T03:05:00;9.90;99.90
53844;DHT22;39744;53.314;5.710;2022-12-31T03:07:29;9.90;99.90
53844;DHT22;39744;53.314;5.710;2022-12-31T03:09:55;10.00;99.90
53844;DHT22;39744;53.314;5.710;2022-12-31T03:12:23;9.90;99.90
53844;DHT22;39744;53.314;5.710;2022-12-31T03:15:09;9.90;99.90
53844;DHT22;39744;53.314;5.710;2022-12-31T03:18:06;9.90;99.90
53844;DHT22;39744;53.314;5.710;2022-12-31T03:20:48;9.80;99.90
53844;DHT22;39744;53.314;5.710;2022-12-31T03:23:34;9.80;99.90
53844;DHT22;39744;53.314;5.710;2022-12-31T03:26:01;9.80;99.90
53844;DHT22;39744;53.314;5.710;2022-12-31T03:28:29;9.70;99.90
53844;DHT22;39744;53.314;5.710;2022-12-31T03:30:59;9.80;99.90
53844;DHT22;39744;53.314;5.710;2022-12-31T03:33:32;9.80;99.90
53844;DHT22;39744;53.314;5.710;2022-12-31T03:35:58;9.80;99.90
53844;DHT22;39744;53.314;5.710;2022-12-31T03:38:23;9.80;99.90
53844;DHT22;39744;53.314;5.710;2022-12-31T03:40:59;9.80;99.90
53844;DHT22;39744;53.314;5.710;2022-12-31T03:43:24;9.90;99.90
53844;DHT22;39744;53.314;5.710;2022-12-31T03:45:51;9.80;99.90
53844;DHT22;39744;53.314;5.710;2022-12-31T03:48:18;9.80;99.90
53844;DHT22;39744;53.314;5.710;2022-12-31T03:50:44;9.80;99.90
53844;DHT22;39744;53.314;5.710;2022-12-31T03:53:10;9.90;99.90
53844;DHT22;39744;53.314;5.710;2022-12-31T03:55:41;9.80;99.90
53844;DHT22;39744;53.314;5.710;2022-12-31T03:58:07;9.80;99.90
53844;DHT22;39744;53.314;5.710;2022-12-31T04:00:33;9.90;99.90
53844;DHT22;39744;53.314;5.710;2022-12-31T04:02:59;9.90;99.90
53844;DHT22;39744;53.314;5.710;2022-12-31T04:05:26;9.80;99.90
53844;DHT22;39744;53.314;5.710;2022-12-31T04:07:53;9.80;99.90
53844;DHT22;39744;53.314;5.710;2022-12-31T04:10:20;9.90;99.90
53844;DHT22;39744;53.314;5.710;2022-12-31T04:12:46;9.80;99.90
53844;DHT22;39744;53.314;5.710;2022-12-31T04:15:19;9.80;99.90
53844;DHT22;39744;53.314;5.710;2022-12-31T04:17:46;9.80;99.90
53844;DHT22;39744;53.314;5.710;2022-12-31T04:20:12;9.80;99.90
53844;DHT22;39744;53.314;5.710;2022-12-31T04:22:39;9.80;99.90
53844;DHT22;39744;53.314;5.710;2022-12-31T04:25:06;9.80;99.90
53844;DHT22;39744;53.314;5.710;2022-12-31T04:27:39;9.80;99.90
53844;DHT22;39744;53.314;5.710;2022-12-31T04:30:06;9.80;99.90
53844;DHT22;39744;53.314;5.710;2022-12-31T04:32:32;9.70;99.90
53844;DHT22;39744;53.314;5.710;2022-12-31T04:34:58;9.70;99.90
53844;DHT22;39744;53.314;5.710;2022-12-31T04:37:24;9.70;99.90
53844;DHT22;39744;53.314;5.710;2022-12-31T04:39:53;9.70;99.90
53844;DHT22;39744;53.314;5.710;2022-12-31T04:42:19;9.70;99.90
53844;DHT22;39744;53.314;5.710;2022-12-31T04:44:45;9.80;99.90
53844;DHT22;39744;53.314;5.710;2022-12-31T04:47:10;9.70;99.90
53844;DHT22;39744;53.314;5.710;2022-12-31T04:49:36;9.70;99.90
53844;DHT22;39744;53.314;5.710;2022-12-31T04:52:02;9.70;99.90
53844;DHT22;39744;53.314;5.710;2022-12-31T04:54:28;9.70;99.90
53844;DHT22;39744;53.314;5.710;2022-12-31T04:56:58;9.70;99.90
53844;DHT22;39744;53.314;5.710;2022-12-31T04:59:24;9.70;99.90
53844;DHT22;39744;53.314;5.710;2022-12-31T05:01:50;9.70;99.90
53844;DHT22;39744;53.314;5.710;2022-12-31T05:04:15;9.70;99.90
53844;DHT22;39744;53.314;5.710;2022-12-31T05:06:41;9.70;99.90
53844;DHT22;39744;53.314;5.710;2022-12-31T05:09:06;9.70;99.90
53844;DHT22;39744;53.314;5.710;2022-12-31T05:11:32;9.60;99.90
53844;DHT22;39744;53.314;5.710;2022-12-31T05:13:58;9.50;99.90
53844;DHT22;39744;53.314;5.710;2022-12-31T05:16:25;10.70;99.90
53844;DHT22;39744;53.314;5.710;2022-12-31T05:18:51;10.20;99.90
53844;DHT22;39744;53.314;5.710;2022-12-31T05:21:21;8.70;99.90
53844;DHT22;39744;53.314;5.710;2022-12-31T05:23:48;9.60;99.90
53844;DHT22;39744;53.314;5.710;2022-12-31T05:26:18;9.40;99.90
53844;DHT22;39744;53.314;5.710;2022-12-31T05:28:47;9.40;99.90
53844;DHT22;39744;53.314;5.710;2022-12-31T05:31:12;10.00;99.90
53844;DHT22;39744;53.314;5.710;2022-12-31T05:33:38;9.40;99.90
53844;DHT22;39744;53.314;5.710;2022-12-31T05:36:08;9.40;99.90
53844;DHT22;39744;53.314;5.710;2022-12-31T05:38:37;9.50;99.90
53844;DHT22;39744;53.314;5.710;2022-12-31T05:41:06;9.20;99.90
53844;DHT22;39744;53.314;5.710;2022-12-31T05:43:32;10.10;99.90
53844;DHT22;39744;53.314;5.710;2022-12-31T05:46:03;9.70;99.90
53844;DHT22;39744;53.314;5.710;2022-12-31T05:48:29;10.00;99.90
53844;DHT22;39744;53.314;5.710;2022-12-31T05:50:55;9.60;99.90
53844;DHT22;39744;53.314;5.710;2022-12-31T05:53:21;9.70;99.90
53844;DHT22;39744;53.314;5.710;2022-12-31T05:55:47;10.40;99.90
53844;DHT22;39744;53.314;5.710;2022-12-31T05:58:14;8.80;99.90
53844;DHT22;39744;53.314;5.710;2022-12-31T06:00:40;9.50;99.90
53844;DHT22;39744;53.314;5.710;2022-12-31T06:03:06;9.50;99.90
53844;DHT22;39744;53.314;5.710;2022-12-31T06:05:32;9.50;99.90
53844;DHT22;39744;53.314;5.710;2022-12-31T06:07:58;8.70;99.90
53844;DHT22;39744;53.314;5.710;2022-12-31T06:10:23;9.40;99.90
53844;DHT22;39744;53.314;5.710;2022-12-31T06:12:49;9.40;99.90
53844;DHT22;39744;53.314;5.710;2022-12-31T06:15:14;9.40;99.90
53844;DHT22;39744;53.314;5.710;2022-12-31T06:17:40;9.30;99.90
53844;DHT22;39744;53.314;5.710;2022-12-31T06:20:06;9.30;99.90
53844;DHT22;39744;53.314;5.710;2022-12-31T06:22:32;9.30;99.90
53844;DHT22;39744;53.314;5.710;2022-12-31T06:24:57;9.30;99.90
53844;DHT22;39744;53.314;5.710;2022-12-31T06:27:23;9.40;99.90
53844;DHT22;39744;53.314;5.710;2022-12-31T06:29:49;9.40;99.90
53844;DHT22;39744;53.314;5.710;2022-12-31T06:32:15;9.40;99.90
53844;DHT22;39744;53.314;5.710;2022-12-31T06:34:41;9.40;99.90
53844;DHT22;39744;53.314;5.710;2022-12-31T06:37:06;9.50;99.90
53844;DHT22;39744;53.314;5.710;2022-12-31T06:39:32;9.50;99.90
53844;DHT22;39744;53.314;5.710;2022-12-31T06:41:57;9.50;99.90
53844;DHT22;39744;53.314;5.710;2022-12-31T06:44:23;9.60;99.90
53844;DHT22;39744;53.314;5.710;2022-12-31T06:46:49;9.40;99.90
53844;DHT22;39744;53.314;5.710;2022-12-31T06:49:15;9.60;99.90
53844;DHT22;39744;53.314;5.710;2022-12-31T06:51:41;9.60;99.90
53844;DHT22;39744;53.314;5.710;2022-12-31T06:54:06;9.90;99.90
53844;DHT22;39744;53.314;5.710;2022-12-31T06:56:32;9.60;99.90
53844;DHT22;39744;53.314;5.710;2022-12-31T06:58:58;9.60;99.90
53844;DHT22;39744;53.314;5.710;2022-12-31T07:01:26;9.60;99.90
53844;DHT22;39744;53.314;5.710;2022-12-31T07:04:21;9.50;99.90
53844;DHT22;39744;53.314;5.710;2022-12-31T07:10:01;9.50;99.90
53844;DHT22;39744;53.314;5.710;2022-12-31T07:12:36;9.50;99.90
53844;DHT22;39744;53.314;5.710;2022-12-31T07:15:49;9.40;99.90
53844;DHT22;39744;53.314;5.710;2022-12-31T07:20:49;9.40;99.90
53844;DHT22;39744;53.314;5.710;2022-12-31T07:23:15;9.40;99.90
53844;DHT22;39744;53.314;5.710;2022-12-31T07:25:45;9.40;99.90
53844;DHT22;39744;53.314;5.710;2022-12-31T07:28:36;9.40;99.90
53844;DHT22;39744;53.314;5.710;2022-12-31T07:31:13;9.40;99.90
53844;DHT22;39744;53.314;5.710;2022-12-31T07:33:57;9.40;99.90
53844;DHT22;39744;53.314;5.710;2022-12-31T07:36:49;9.40;99.90
53844;DHT22;39744;53.314;5.710;2022-12-31T07:39:29;9.40;99.90
53844;DHT22;39744;53.314;5.710;2022-12-31T07:42:08;9.40;99.90
53844;DHT22;39744;53.314;5.710;2022-12-31T07:47:26;9.30;99.90
53844;DHT22;39744;53.314;5.710;2022-12-31T07:49:53;9.30;99.90
53844;DHT22;39744;53.314;5.710;2022-12-31T07:52:19;9.30;99.90
53844;DHT22;39744;53.314;5.710;2022-12-31T07:54:45;9.40;99.90
53844;DHT22;39744;53.314;5.710;2022-12-31T07:57:12;9.40;99.90
53844;DHT22;39744;53.314;5.710;2022-12-31T08:07:55;9.40;99.90
53844;DHT22;39744;53.314;5.710;2022-12-31T08:13:00;9.50;99.90
53844;DHT22;39744;53.314;5.710;2022-12-31T08:15:26;9.40;99.90
53844;DHT22;39744;53.314;5.710;2022-12-31T08:17:52;9.50;99.90
53844;DHT22;39744;53.314;5.710;2022-12-31T08:20:18;9.40;99.90
53844;DHT22;39744;53.314;5.710;2022-12-31T08:22:52;9.50;99.90
53844;DHT22;39744;53.314;5.710;2022-12-31T08:25:36;9.50;99.90
53844;DHT22;39744;53.314;5.710;2022-12-31T08:28:15;9.50;99.90
53844;DHT22;39744;53.314;5.710;2022-12-31T08:33:28;9.50;99.90
53844;DHT22;39744;53.314;5.710;2022-12-31T08:36:10;9.50;99.90
53844;DHT22;39744;53.314;5.710;2022-12-31T08:38:54;9.50;99.90
53844;DHT22;39744;53.314;5.710;2022-12-31T08:41:38;9.60;99.90
53844;DHT22;39744;53.314;5.710;2022-12-31T08:44:38;9.60;99.90
53844;DHT22;39744;53.314;5.710;2022-12-31T08:47:19;9.60;99.90
53844;DHT22;39744;53.314;5.710;2022-12-31T08:49:46;9.70;99.90
53844;DHT22;39744;53.314;5.710;2022-12-31T08:52:20;9.80;99.90
53844;DHT22;39744;53.314;5.710;2022-12-31T08:54:47;9.90;99.90
53844;DHT22;39744;53.314;5.710;2022-12-31T08:57:27;10.00;99.90
53844;DHT22;39744;53.314;5.710;2022-12-31T09:00:14;10.10;99.90
53844;DHT22;39744;53.314;5.710;2022-12-31T09:08:19;10.30;99.90
53844;DHT22;39744;53.314;5.710;2022-12-31T09:13:59;10.40;99.90
53844;DHT22;39744;53.314;5.710;2022-12-31T09:16:38;10.60;99.90
53844;DHT22;39744;53.314;5.710;2022-12-31T09:19:05;10.60;99.90
53844;DHT22;39744;53.314;5.710;2022-12-31T09:21:32;10.70;99.90
53844;DHT22;39744;53.314;5.710;2022-12-31T09:23:58;10.90;99.90
53844;DHT22;39744;53.314;5.710;2022-12-31T09:37:39;11.40;99.90
53844;DHT22;39744;53.314;5.710;2022-12-31T09:59:35;11.50;99.90
53844;DHT22;39744;53.314;5.710;2022-12-31T10:05:20;11.60;99.90
53844;DHT22;39744;53.314;5.710;2022-12-31T10:10:41;11.70;99.90
53844;DHT22;39744;53.314;5.710;2022-12-31T10:13:22;11.70;99.90
53844;DHT22;39744;53.314;5.710;2022-12-31T10:16:08;11.70;99.90
53844;DHT22;39744;53.314;5.710;2022-12-31T10:18:56;11.60;99.90
53844;DHT22;39744;53.314;5.710;2022-12-31T10:38:46;11.90;99.90
53844;DHT22;39744;53.314;5.710;2022-12-31T10:42:04;12.00;99.90
53844;DHT22;39744;53.314;5.710;2022-12-31T10:50:43;12.00;99.90
53844;DHT22;39744;53.314;5.710;2022-12-31T10:56:25;12.20;99.90
53844;DHT22;39744;53.314;5.710;2022-12-31T11:11:45;12.30;99.90
53844;DHT22;39744;53.314;5.710;2022-12-31T11:28:06;12.10;99.90
53844;DHT22;39744;53.314;5.710;2022-12-31T11:30:42;12.00;99.90
53844;DHT22;39744;53.314;5.710;2022-12-31T11:38:30;12.00;99.90
53844;DHT22;39744;53.314;5.710;2022-12-31T11:47:22;12.20;99.90
53844;DHT22;39744;53.314;5.710;2022-12-31T11:55:33;12.30;99.90
53844;DHT22;39744;53.314;5.710;2022-12-31T11:58:11;12.30;99.90
53844;DHT22;39744;53.314;5.710;2022-12-31T12:00:38;12.40;99.90
53844;DHT22;39744;53.314;5.710;2022-12-31T12:03:05;12.40;99.90
53844;DHT22;39744;53.314;5.710;2022-12-31T12:05:33;12.40;99.90
53844;DHT22;39744;53.314;5.710;2022-12-31T12:08:00;12.30;99.90
53844;DHT22;39744;53.314;5.710;2022-12-31T12:10:41;12.30;99.90
53844;DHT22;39744;53.314;5.710;2022-12-31T12:13:13;12.40;99.90
53844;DHT22;39744;53.314;5.710;2022-12-31T12:15:43;12.30;99.90
53844;DHT22;39744;53.314;5.710;2022-12-31T12:20:50;12.30;99.90
53844;DHT22;39744;53.314;5.710;2022-12-31T12:23:22;12.30;99.90
53844;DHT22;39744;53.314;5.710;2022-12-31T12:25:49;12.30;99.90
53844;DHT22;39744;53.314;5.710;2022-12-31T12:28:27;12.30;99.90
53844;DHT22;39744;53.314;5.710;2022-12-31T12:31:03;12.20;99.90
53844;DHT22;39744;53.314;5.710;2022-12-31T12:33:43;12.30;99.90
53844;DHT22;39744;53.314;5.710;2022-12-31T12:36:12;12.30;99.90
53844;DHT22;39744;53.314;5.710;2022-12-31T12:38:41;12.30;99.90
53844;DHT22;39744;53.314;5.710;2022-12-31T12:41:18;12.30;99.90
53844;DHT22;39744;53.314;5.710;2022-12-31T12:43:44;12.30;99.90
53844;DHT22;39744;53.314;5.710;2022-12-31T12:46:36;12.20;99.90
53844;DHT22;39744;53.314;5.710;2022-12-31T12:49:13;12.30;99.90
53844;DHT22;39744;53.314;5.710;2022-12-31T12:57:34;12.30;99.90
53844;DHT22;39744;53.314;5.710;2022-12-31T13:00:20;12.30;99.90
53844;DHT22;39744;53.314;5.710;2022-12-31T13:03:10;12.20;99.90
53844;DHT22;39744;53.314;5.710;2022-12-31T13:05:47;12.20;99.90
53844;DHT22;39744;53.314;5.710;2022-12-31T13:12:01;12.20;99.90
53844;DHT22;39744;53.314;5.710;2022-12-31T13:14:29;12.20;99.90
53844;DHT22;39744;53.314;5.710;2022-12-31T13:22:19;12.10;99.90
53844;DHT22;39744;53.314;5.710;2022-12-31T13:27:44;12.10;99.90
53844;DHT22;39744;53.314;5.710;2022-12-31T13:30:33;12.10;99.90
53844;DHT22;39744;53.314;5.710;2022-12-31T13:33:13;12.10;99.90
53844;DHT22;39744;53.314;5.710;2022-12-31T13:36:06;12.10;99.90
53844;DHT22;39744;53.314;5.710;2022-12-31T13:38:39;12.00;99.90
53844;DHT22;39744;53.314;5.710;2022-12-31T13:41:21;12.00;99.90
53844;DHT22;39744;53.314;5.710;2022-12-31T13:43:54;12.00;99.90
53844;DHT22;39744;53.314;5.710;2022-12-31T13:46:35;11.90;99.90
53844;DHT22;39744;53.314;5.710;2022-12-31T13:49:04;11.90;99.90
53844;DHT22;39744;53.314;5.710;2022-12-31T13:54:08;11.90;99.90
53844;DHT22;39744;53.314;5.710;2022-12-31T13:56:38;11.90;99.90
53844;DHT22;39744;53.314;5.710;2022-12-31T13:59:13;11.90;99.90
53844;DHT22;39744;53.314;5.710;2022-12-31T14:04:41;11.90;99.90
53844;DHT22;39744;53.314;5.710;2022-12-31T14:07:34;11.80;99.90
53844;DHT22;39744;53.314;5.710;2022-12-31T14:10:00;11.80;99.90
53844;DHT22;39744;53.314;5.710;2022-12-31T14:12:55;11.80;99.90
53844;DHT22;39744;53.314;5.710;2022-12-31T14:15:31;11.80;99.90
53844;DHT22;39744;53.314;5.710;2022-12-31T14:18:30;11.80;99.90
53844;DHT22;39744;53.314;5.710;2022-12-31T14:21:09;11.80;99.90
53844;DHT22;39744;53.314;5.710;2022-12-31T14:23:41;11.70;99.90
53844;DHT22;39744;53.314;5.710;2022-12-31T14:37:24;11.70;99.90
53844;DHT22;39744;53.314;5.710;2022-12-31T14:40:24;11.60;99.90
53844;DHT22;39744;53.314;5.710;2022-12-31T14:45:52;11.50;99.90
53844;DHT22;39744;53.314;5.710;2022-12-31T14:50:49;11.50;99.90
53844;DHT22;39744;53.314;5.710;2022-12-31T14:53:25;11.40;99.90
53844;DHT22;39744;53.314;5.710;2022-12-31T14:56:03;11.40;99.90
53844;DHT22;39744;53.314;5.710;2022-12-31T14:58:39;11.40;99.90
53844;DHT22;39744;53.314;5.710;2022-12-31T15:03:43;11.30;99.90
53844;DHT22;39744;53.314;5.710;2022-12-31T15:09:03;11.30;99.90
53844;DHT22;39744;53.314;5.710;2022-12-31T15:22:39;11.10;99.90
53844;DHT22;39744;53.314;5.710;2022-12-31T15:25:25;11.20;99.90
53844;DHT22;39744;53.314;5.710;2022-12-31T15:27:51;11.20;99.90
53844;DHT22;39744;53.314;5.710;2022-12-31T15:33:35;11.20;99.90
53844;DHT22;39744;53.314;5.710;2022-12-31T15:36:16;11.20;99.90
53844;DHT22;39744;53.314;5.710;2022-12-31T15:38:42;11.20;99.90
53844;DHT22;39744;53.314;5.710;2022-12-31T15:41:26;11.20;99.90
53844;DHT22;39744;53.314;5.710;2022-12-31T15:44:00;11.30;99.90
53844;DHT22;39744;53.314;5.710;2022-12-31T15:46:30;11.30;99.90
53844;DHT22;39744;53.314;5.710;2022-12-31T15:49:19;11.30;99.90
53844;DHT22;39744;53.314;5.710;2022-12-31T15:52:06;11.30;99.90
53844;DHT22;39744;53.314;5.710;2022-12-31T15:54:41;11.30;99.90
53844;DHT22;39744;53.314;5.710;2022-12-31T15:57:16;11.30;99.90
53844;DHT22;39744;53.314;5.710;2022-12-31T15:59:43;11.30;99.90
53844;DHT22;39744;53.314;5.710;2022-12-31T16:02:19;11.30;99.90
53844;DHT22;39744;53.314;5.710;2022-12-31T16:04:47;11.30;99.90
53844;DHT22;39744;53.314;5.710;2022-12-31T16:07:13;11.30;99.90
53844;DHT22;39744;53.314;5.710;2022-12-31T16:09:39;10.70;99.90
53844;DHT22;39744;53.314;5.710;2022-12-31T16:12:10;11.30;99.90
53844;DHT22;39744;53.314;5.710;2022-12-31T16:14:39;11.90;99.90
53844;DHT22;39744;53.314;5.710;2022-12-31T16:17:18;11.20;99.90
53844;DHT22;39744;53.314;5.710;2022-12-31T16:19:45;11.30;99.90
53844;DHT22;39744;53.314;5.710;2022-12-31T16:22:28;11.40;99.90
53844;DHT22;39744;53.314;5.710;2022-12-31T16:24:59;11.30;99.90
53844;DHT22;39744;53.314;5.710;2022-12-31T16:27:26;11.30;99.90
53844;DHT22;39744;53.314;5.710;2022-12-31T16:30:05;11.30;99.90
53844;DHT22;39744;53.314;5.710;2022-12-31T16:32:40;11.40;99.90
53844;DHT22;39744;53.314;5.710;2022-12-31T16:35:33;11.40;99.90
53844;DHT22;39744;53.314;5.710;2022-12-31T16:40:28;11.40;99.90
53844;DHT22;39744;53.314;5.710;2022-12-31T16:42:54;11.40;99.90
53844;DHT22;39744;53.314;5.710;2022-12-31T16:45:37;11.40;99.90
53844;DHT22;39744;53.314;5.710;2022-12-31T16:48:09;11.40;99.90
53844;DHT22;39744;53.314;5.710;2022-12-31T16:50:43;11.40;99.90
53844;DHT22;39744;53.314;5.710;2022-12-31T16:53:11;11.40;99.90
53844;DHT22;39744;53.314;5.710;2022-12-31T16:55:39;11.40;99.90
53844;DHT22;39744;53.314;5.710;2022-12-31T16:58:20;11.40;99.90
53844;DHT22;39744;53.314;5.710;2022-12-31T17:00:48;11.40;99.90
53844;DHT22;39744;53.314;5.710;2022-12-31T17:03:21;11.40;99.90
53844;DHT22;39744;53.314;5.710;2022-12-31T17:06:18;11.30;99.90
53844;DHT22;39744;53.314;5.710;2022-12-31T17:15:01;11.40;99.90
53844;DHT22;39744;53.314;5.710;2022-12-31T17:17:28;11.30;99.90
53844;DHT22;39744;53.314;5.710;2022-12-31T17:19:59;11.40;99.90
53844;DHT22;39744;53.314;5.710;2022-12-31T17:22:39;11.40;99.90
53844;DHT22;39744;53.314;5.710;2022-12-31T17:25:17;11.40;99.90
53844;DHT22;39744;53.314;5.710;2022-12-31T17:28:21;11.40;99.90
53844;DHT22;39744;53.314;5.710;2022-12-31T17:30:48;11.40;99.90
53844;DHT22;39744;53.314;5.710;2022-12-31T17:35:41;11.60;99.90
53844;DHT22;39744;53.314;5.710;2022-12-31T17:38:40;11.60;99.90
53844;DHT22;39744;53.314;5.710;2022-12-31T17:43:35;11.60;99.90
53844;DHT22;39744;53.314;5.710;2022-12-31T17:46:14;11.60;99.90
53844;DHT22;39744;53.314;5.710;2022-12-31T17:48:41;11.60;99.90
53844;DHT22;39744;53.314;5.710;2022-12-31T17:51:07;11.60;99.90
53844;DHT22;39744;53.314;5.710;2022-12-31T17:53:33;11.60;99.90
53844;DHT22;39744;53.314;5.710;2022-12-31T17:56:02;11.60;99.90
53844;DHT22;39744;53.314;5.710;2022-12-31T17:58:44;11.60;99.90
53844;DHT22;39744;53.314;5.710;2022-12-31T18:01:13;11.60;99.90
53844;DHT22;39744;53.314;5.710;2022-12-31T18:03:39;11.70;99.90
53844;DHT22;39744;53.314;5.710;2022-12-31T18:06:08;11.60;99.90
53844;DHT22;39744;53.314;5.710;2022-12-31T18:08:34;11.60;99.90
53844;DHT22;39744;53.314;5.710;2022-12-31T18:11:00;11.60;99.90
53844;DHT22;39744;53.314;5.710;2022-12-31T18:13:26;11.60;99.90
53844;DHT22;39744;53.314;5.710;2022-12-31T18:15:52;11.60;99.90
53844;DHT22;39744;53.314;5.710;2022-12-31T18:18:20;11.60;99.90
53844;DHT22;39744;53.314;5.710;2022-12-31T18:20:49;11.60;99.90
53844;DHT22;39744;53.314;5.710;2022-12-31T18:25:49;11.70;99.90
53844;DHT22;39744;53.314;5.710;2022-12-31T18:28:15;11.70;99.90
53844;DHT22;39744;53.314;5.710;2022-12-31T18:30:41;11.70;99.90
53844;DHT22;39744;53.314;5.710;2022-12-31T18:33:11;11.70;99.90
53844;DHT22;39744;53.314;5.710;2022-12-31T18:35:37;11.70;99.90
53844;DHT22;39744;53.314;5.710;2022-12-31T18:38:12;11.60;99.90
53844;DHT22;39744;53.314;5.710;2022-12-31T18:40:38;11.70;99.90
53844;DHT22;39744;53.314;5.710;2022-12-31T18:43:16;11.70;99.90
53844;DHT22;39744;53.314;5.710;2022-12-31T18:45:42;11.70;99.90
53844;DHT22;39744;53.314;5.710;2022-12-31T18:48:08;11.70;99.90
53844;DHT22;39744;53.314;5.710;2022-12-31T18:50:34;11.70;99.90
53844;DHT22;39744;53.314;5.710;2022-12-31T18:53:00;11.70;99.90
53844;DHT22;39744;53.314;5.710;2022-12-31T18:55:40;11.60;99.90
53844;DHT22;39744;53.314;5.710;2022-12-31T18:58:09;11.70;99.90
53844;DHT22;39744;53.314;5.710;2022-12-31T19:00:36;11.70;99.90
53844;DHT22;39744;53.314;5.710;2022-12-31T19:03:02;11.70;99.90
53844;DHT22;39744;53.314;5.710;2022-12-31T19:05:32;11.70;99.90
53844;DHT22;39744;53.314;5.710;2022-12-31T19:07:58;11.60;99.90
53844;DHT22;39744;53.314;5.710;2022-12-31T19:10:25;11.70;99.90
53844;DHT22;39744;53.314;5.710;2022-12-31T19:12:51;11.70;99.90
53844;DHT22;39744;53.314;5.710;2022-12-31T19:15:27;11.70;99.90
53844;DHT22;39744;53.314;5.710;2022-12-31T19:17:55;11.60;99.90
53844;DHT22;39744;53.314;5.710;2022-12-31T19:20:20;11.70;99.90
53844;DHT22;39744;53.314;5.710;2022-12-31T19:22:46;11.60;99.90
53844;DHT22;39744;53.314;5.710;2022-12-31T19:25:21;11.60;99.90
53844;DHT22;39744;53.314;5.710;2022-12-31T19:27:47;11.60;99.90
53844;DHT22;39744;53.314;5.710;2022-12-31T19:30:32;11.60;99.90
53844;DHT22;39744;53.314;5.710;2022-12-31T19:32:59;11.60;99.90
53844;DHT22;39744;53.314;5.710;2022-12-31T19:35:25;11.60;99.90
53844;DHT22;39744;53.314;5.710;2022-12-31T19:37:52;11.60;99.90
53844;DHT22;39744;53.314;5.710;2022-12-31T19:40:24;11.60;99.90
53844;DHT22;39744;53.314;5.710;2022-12-31T19:42:50;11.60;99.90
53844;DHT22;39744;53.314;5.710;2022-12-31T19:45:23;11.60;99.90
53844;DHT22;39744;53.314;5.710;2022-12-31T19:47:51;11.60;99.90
53844;DHT22;39744;53.314;5.710;2022-12-31T19:50:27;11.60;99.90
53844;DHT22;39744;53.314;5.710;2022-12-31T19:52:55;11.60;99.90
53844;DHT22;39744;53.314;5.710;2022-12-31T19:55:23;11.60;99.90
53844;DHT22;39744;53.314;5.710;2022-12-31T19:57:51;11.40;99.90
53844;DHT22;39744;53.314;5.710;2022-12-31T20:00:19;11.70;99.90